createdAt,value
2018-10-21T00:00:30.660Z,7.05
2018-10-21T00:01:30.652Z,7.06
2018-10-21T00:02:30.837Z,7.05
2018-10-21T00:03:30.644Z,6.96
2018-10-21T00:04:30.633Z,7.02
2018-10-21T00:05:30.624Z,6.93
2018-10-21T00:06:30.633Z,7.00
2018-10-21T00:07:30.615Z,6.95
2018-10-21T00:08:30.609Z,6.93
2018-10-21T00:09:30.604Z,6.95
2018-10-21T00:10:30.597Z,6.93
2018-10-21T00:11:30.590Z,6.92
2018-10-21T00:12:30.581Z,6.92
2018-10-21T00:13:30.577Z,6.89
2018-10-21T00:14:30.573Z,6.84
2018-10-21T00:15:30.618Z,6.88
2018-10-21T00:16:30.560Z,6.82
2018-10-21T00:17:30.549Z,6.85
2018-10-21T00:18:30.542Z,6.78
2018-10-21T00:19:30.535Z,6.88
2018-10-21T00:20:30.529Z,6.87
2018-10-21T00:21:30.523Z,6.88
2018-10-21T00:22:30.515Z,6.95
2018-10-21T00:23:30.511Z,6.95
2018-10-21T00:24:30.501Z,6.99
2018-10-21T00:25:30.496Z,6.79
2018-10-21T00:26:30.490Z,6.85
2018-10-21T00:27:30.482Z,6.87
2018-10-21T00:28:30.474Z,6.78
2018-10-21T00:29:30.474Z,6.85
2018-10-21T00:30:30.461Z,6.74
2018-10-21T00:31:30.460Z,6.77
2018-10-21T00:32:30.448Z,6.72
2018-10-21T00:33:30.441Z,6.69
2018-10-21T00:34:30.433Z,6.67
2018-10-21T00:35:30.429Z,6.70
2018-10-21T00:36:30.422Z,6.67
2018-10-21T00:37:30.414Z,6.70
2018-10-21T00:38:30.410Z,6.64
2018-10-21T00:39:30.410Z,6.64
2018-10-21T00:40:30.394Z,6.59
2018-10-21T00:41:30.389Z,6.62
2018-10-21T00:42:30.380Z,6.60
2018-10-21T00:43:30.375Z,6.60
2018-10-21T00:44:30.370Z,6.62
2018-10-21T00:45:30.359Z,6.62
2018-10-21T00:46:30.354Z,6.54
2018-10-21T00:47:30.346Z,6.49
2018-10-21T00:48:30.342Z,6.46
2018-10-21T00:49:30.332Z,6.59
2018-10-21T00:50:30.326Z,6.49
2018-10-21T00:51:30.320Z,6.41
2018-10-21T00:52:30.315Z,6.51
2018-10-21T00:53:30.305Z,6.44
2018-10-21T00:54:30.303Z,6.44
2018-10-21T00:55:30.292Z,6.49
2018-10-21T00:56:30.289Z,6.46
2018-10-21T00:57:30.276Z,6.45
2018-10-21T00:58:30.294Z,6.35
2018-10-21T00:59:30.263Z,6.42
2018-10-21T01:00:30.256Z,6.33
2018-10-21T01:01:30.250Z,6.28
2018-10-21T01:02:30.238Z,6.38
2018-10-21T01:03:30.238Z,6.31
2018-10-21T01:04:30.229Z,6.28
2018-10-21T01:05:30.222Z,6.28
2018-10-21T01:06:30.213Z,6.30
2018-10-21T01:07:30.204Z,6.31
2018-10-21T01:08:30.200Z,6.20
2018-10-21T01:09:30.197Z,6.12
2018-10-21T01:10:30.184Z,6.12
2018-10-21T01:11:30.178Z,6.12
2018-10-21T01:12:30.169Z,6.12
2018-10-21T01:13:30.165Z,6.16
2018-10-21T01:14:30.155Z,6.16
2018-10-21T01:15:30.148Z,6.07
2018-10-21T01:16:30.143Z,6.11
2018-10-21T01:17:30.135Z,6.05
2018-10-21T01:18:30.129Z,6.12
2018-10-21T01:19:30.125Z,6.07
2018-10-21T01:20:30.115Z,6.09
2018-10-21T01:21:30.109Z,6.14
2018-10-21T01:22:30.098Z,6.09
2018-10-21T01:23:30.094Z,6.01
2018-10-21T01:24:30.085Z,6.11
2018-10-21T01:25:30.082Z,6.11
2018-10-21T01:26:30.074Z,6.01
2018-10-21T01:27:30.064Z,6.05
2018-10-21T01:28:30.057Z,5.99
2018-10-21T01:29:30.052Z,5.97
2018-10-21T01:30:30.041Z,5.94
2018-10-21T01:31:30.039Z,5.98
2018-10-21T01:32:30.034Z,6.01
2018-10-21T01:33:30.019Z,6.01
2018-10-21T01:34:30.011Z,5.90
2018-10-21T01:35:30.009Z,5.98
2018-10-21T01:36:30.411Z,5.99
2018-10-21T01:37:30.005Z,5.91
2018-10-21T01:38:29.987Z,5.89
2018-10-21T01:39:29.974Z,5.79
2018-10-21T01:40:29.968Z,5.79
2018-10-21T01:41:29.975Z,5.89
2018-10-21T01:42:29.955Z,5.82
2018-10-21T01:43:29.951Z,5.86
2018-10-21T01:44:29.944Z,5.83
2018-10-21T01:45:29.933Z,5.76
2018-10-21T01:46:29.929Z,5.80
2018-10-21T01:47:29.919Z,5.83
2018-10-21T01:48:29.915Z,5.79
2018-10-21T01:49:29.903Z,5.79
2018-10-21T01:50:29.918Z,5.66
2018-10-21T01:51:29.892Z,5.69
2018-10-21T01:52:29.898Z,5.75
2018-10-21T01:53:29.880Z,5.64
2018-10-21T01:54:29.872Z,5.71
2018-10-21T01:55:29.862Z,5.66
2018-10-21T01:56:29.851Z,5.68
2018-10-21T01:57:29.847Z,5.62
2018-10-21T01:58:29.839Z,5.66
2018-10-21T01:59:29.828Z,5.62
2018-10-21T02:00:29.824Z,5.53
2018-10-21T02:01:29.814Z,5.57
2018-10-21T02:02:29.811Z,5.57
2018-10-21T02:03:29.808Z,5.50
2018-10-21T02:04:29.795Z,5.61
2018-10-21T02:05:29.787Z,5.62
2018-10-21T02:06:29.778Z,5.54
2018-10-21T02:07:29.778Z,5.61
2018-10-21T02:08:29.765Z,5.62
2018-10-21T02:09:29.757Z,5.62
2018-10-21T02:10:29.751Z,5.68
2018-10-21T02:11:29.742Z,5.66
2018-10-21T02:12:29.735Z,5.68
2018-10-21T02:13:29.728Z,5.62
2018-10-21T02:14:29.719Z,5.61
2018-10-21T02:15:29.715Z,5.56
2018-10-21T02:16:29.706Z,5.57
2018-10-21T02:17:29.699Z,5.53
2018-10-21T02:18:29.705Z,5.61
2018-10-21T02:19:29.681Z,5.57
2018-10-21T02:20:29.682Z,5.57
2018-10-21T02:21:29.665Z,5.46
2018-10-21T02:22:29.658Z,5.46
2018-10-21T02:23:29.652Z,5.38
2018-10-21T02:24:29.643Z,5.47
2018-10-21T02:25:29.653Z,5.44
2018-10-21T02:26:29.639Z,5.41
2018-10-21T02:27:29.620Z,5.35
2018-10-21T02:28:29.614Z,5.39
2018-10-21T02:29:29.605Z,5.23
2018-10-21T02:30:29.601Z,5.30
2018-10-21T02:31:29.593Z,5.29
2018-10-21T02:32:29.584Z,5.28
2018-10-21T02:33:29.743Z,5.26
2018-10-21T02:34:29.568Z,5.28
2018-10-21T02:35:29.567Z,5.25
2018-10-21T02:36:29.556Z,5.23
2018-10-21T02:37:29.544Z,5.25
2018-10-21T02:38:29.536Z,5.33
2018-10-21T02:39:29.525Z,5.25
2018-10-21T02:40:29.516Z,5.25
2018-10-21T02:41:29.520Z,5.32
2018-10-21T02:42:29.507Z,5.26
2018-10-21T02:43:29.502Z,5.30
2018-10-21T02:44:29.490Z,5.26
2018-10-21T02:45:29.483Z,5.21
2018-10-21T02:46:29.471Z,5.17
2018-10-21T02:47:29.466Z,5.10
2018-10-21T02:48:29.459Z,5.11
2018-10-21T02:49:29.451Z,5.11
2018-10-21T02:50:29.447Z,5.14
2018-10-21T02:51:29.435Z,5.05
2018-10-21T02:52:29.428Z,5.11
2018-10-21T02:53:29.418Z,5.18
2018-10-21T02:54:29.412Z,5.08
2018-10-21T02:55:29.405Z,5.05
2018-10-21T02:56:29.401Z,5.18
2018-10-21T02:57:29.387Z,5.17
2018-10-21T02:58:29.381Z,5.14
2018-10-21T02:59:29.375Z,5.14
2018-10-21T03:00:29.369Z,5.17
2018-10-21T03:01:29.356Z,5.08
2018-10-21T03:02:29.349Z,5.17
2018-10-21T03:03:29.340Z,5.11
2018-10-21T03:04:29.332Z,5.07
2018-10-21T03:05:29.325Z,5.05
2018-10-21T03:06:29.330Z,5.10
2018-10-21T03:07:29.308Z,5.00
2018-10-21T03:08:29.305Z,5.02
2018-10-21T03:09:29.297Z,4.96
2018-10-21T03:10:29.284Z,4.92
2018-10-21T03:11:29.277Z,4.84
2018-10-21T03:12:29.270Z,4.96
2018-10-21T03:13:29.260Z,4.80
2018-10-21T03:14:29.252Z,4.90
2018-10-21T03:15:29.244Z,4.77
2018-10-21T03:16:29.239Z,4.90
2018-10-21T03:17:29.235Z,4.87
2018-10-21T03:18:29.270Z,4.82
2018-10-21T03:19:29.215Z,4.78
2018-10-21T03:20:29.207Z,4.68
2018-10-21T03:21:29.197Z,4.71
2018-10-21T03:22:29.190Z,4.78
2018-10-21T03:23:29.183Z,4.86
2018-10-21T03:24:29.175Z,4.87
2018-10-21T03:25:29.169Z,4.75
2018-10-21T03:26:29.159Z,4.86
2018-10-21T03:27:29.152Z,4.86
2018-10-21T03:28:29.139Z,4.66
2018-10-21T03:29:29.134Z,4.68
2018-10-21T03:30:29.127Z,4.62
2018-10-21T03:31:29.123Z,4.77
2018-10-21T03:32:29.111Z,4.67
2018-10-21T03:33:29.233Z,4.66
2018-10-21T03:34:29.097Z,4.74
2018-10-21T03:35:29.093Z,4.71
2018-10-21T03:36:29.082Z,4.73
2018-10-21T03:37:29.069Z,4.77
2018-10-21T03:38:29.064Z,4.78
2018-10-21T03:39:29.055Z,4.77
2018-10-21T03:40:29.047Z,4.77
2018-10-21T03:41:29.090Z,4.73
2018-10-21T03:42:29.027Z,4.68
2018-10-21T03:43:29.026Z,4.73
2018-10-21T03:44:29.017Z,4.70
2018-10-21T03:45:29.015Z,4.71
2018-10-21T03:46:28.999Z,4.73
2018-10-21T03:47:28.991Z,4.71
2018-10-21T03:48:28.985Z,4.70
2018-10-21T03:49:28.977Z,4.77
2018-10-21T03:50:28.976Z,4.68
2018-10-21T03:51:28.955Z,4.80
2018-10-21T03:52:28.952Z,4.70
2018-10-21T03:53:28.941Z,4.63
2018-10-21T03:54:28.934Z,4.60
2018-10-21T03:55:28.924Z,4.75
2018-10-21T03:56:28.915Z,4.68
2018-10-21T03:57:28.907Z,4.71
2018-10-21T03:58:28.901Z,5.00
2018-10-21T03:59:28.894Z,5.02
2018-10-21T04:00:28.889Z,4.99
2018-10-21T04:01:28.881Z,4.96
2018-10-21T04:02:28.864Z,4.86
2018-10-21T04:03:28.857Z,4.87
2018-10-21T04:04:28.850Z,4.73
2018-10-21T04:05:28.839Z,4.73
2018-10-21T04:06:28.836Z,4.63
2018-10-21T04:07:28.835Z,4.66
2018-10-21T04:08:28.831Z,4.71
2018-10-21T04:09:28.811Z,4.66
2018-10-21T04:10:28.804Z,4.60
2018-10-21T04:11:28.798Z,4.62
2018-10-21T04:12:28.791Z,4.56
2018-10-21T04:13:28.782Z,4.53
2018-10-21T04:14:28.771Z,4.52
2018-10-21T04:15:28.763Z,4.53
2018-10-21T04:16:28.754Z,4.50
2018-10-21T04:17:28.746Z,4.56
2018-10-21T04:18:28.739Z,4.52
2018-10-21T04:19:28.730Z,4.44
2018-10-21T04:20:28.723Z,4.41
2018-10-21T04:21:28.715Z,4.40
2018-10-21T04:22:28.705Z,4.38
2018-10-21T04:23:28.698Z,4.44
2018-10-21T04:24:28.691Z,4.41
2018-10-21T04:25:28.682Z,4.41
2018-10-21T04:26:28.678Z,4.38
2018-10-21T04:27:28.665Z,4.42
2018-10-21T04:28:28.657Z,4.40
2018-10-21T04:29:28.651Z,4.37
2018-10-21T04:30:28.640Z,4.40
2018-10-21T04:31:28.635Z,4.42
2018-10-21T04:32:28.629Z,4.28
2018-10-21T04:33:28.626Z,4.30
2018-10-21T04:34:28.628Z,4.30
2018-10-21T04:35:28.665Z,4.24
2018-10-21T04:36:28.590Z,4.24
2018-10-21T04:37:28.578Z,4.35
2018-10-21T04:38:28.573Z,4.35
2018-10-21T04:39:28.570Z,4.26
2018-10-21T04:40:28.561Z,4.40
2018-10-21T04:41:28.549Z,4.40
2018-10-21T04:42:28.545Z,4.35
2018-10-21T04:43:28.538Z,4.24
2018-10-21T04:44:28.530Z,4.24
2018-10-21T04:45:28.516Z,4.31
2018-10-21T04:46:28.575Z,4.28
2018-10-21T04:47:28.500Z,4.28
2018-10-21T04:48:28.494Z,4.20
2018-10-21T04:49:28.483Z,4.17
2018-10-21T04:50:28.475Z,4.17
2018-10-21T04:51:28.464Z,4.16
2018-10-21T04:52:28.461Z,4.08
2018-10-21T04:53:28.454Z,4.13
2018-10-21T04:54:28.441Z,4.05
2018-10-21T04:55:28.439Z,3.98
2018-10-21T04:56:28.432Z,4.08
2018-10-21T04:57:28.416Z,4.10
2018-10-21T04:58:28.408Z,4.13
2018-10-21T04:59:28.402Z,4.08
2018-10-21T05:00:28.397Z,4.08
2018-10-21T05:01:28.383Z,4.13
2018-10-21T05:02:28.375Z,4.13
2018-10-21T05:03:28.371Z,4.14
2018-10-21T05:04:28.362Z,4.10
2018-10-21T05:05:28.346Z,4.12
2018-10-21T05:06:28.347Z,4.02
2018-10-21T05:07:28.400Z,4.06
2018-10-21T05:08:28.328Z,4.06
2018-10-21T05:09:28.316Z,4.14
2018-10-21T05:10:28.311Z,4.19
2018-10-21T05:11:28.302Z,4.19
2018-10-21T05:12:28.293Z,4.14
2018-10-21T05:13:28.285Z,4.16
2018-10-21T05:14:28.278Z,4.12
2018-10-21T05:15:28.271Z,4.12
2018-10-21T05:16:28.267Z,4.12
2018-10-21T05:17:28.251Z,4.12
2018-10-21T05:18:28.242Z,4.10
2018-10-21T05:19:28.238Z,3.98
2018-10-21T05:20:28.225Z,4.05
2018-10-21T05:21:28.215Z,4.01
2018-10-21T05:22:28.211Z,3.88
2018-10-21T05:23:28.200Z,3.94
2018-10-21T05:24:28.198Z,3.94
2018-10-21T05:25:28.181Z,3.87
2018-10-21T05:26:28.176Z,3.96
2018-10-21T05:27:28.167Z,3.88
2018-10-21T05:28:28.154Z,3.86
2018-10-21T05:29:28.154Z,3.88
2018-10-21T05:30:28.143Z,3.95
2018-10-21T05:31:28.129Z,4.01
2018-10-21T05:32:28.123Z,4.12
2018-10-21T05:33:28.116Z,4.14
2018-10-21T05:34:28.107Z,4.13
2018-10-21T05:35:28.103Z,4.13
2018-10-21T05:36:28.096Z,4.13
2018-10-21T05:37:28.080Z,4.16
2018-10-21T05:38:28.072Z,4.10
2018-10-21T05:39:28.069Z,4.17
2018-10-21T05:40:28.071Z,4.16
2018-10-21T05:41:28.047Z,4.20
2018-10-21T05:42:28.035Z,4.22
2018-10-21T05:43:28.034Z,4.23
2018-10-21T05:44:28.024Z,4.20
2018-10-21T05:45:28.015Z,4.14
2018-10-21T05:46:28.004Z,4.20
2018-10-21T05:47:28.010Z,4.28
2018-10-21T05:48:27.989Z,4.14
2018-10-21T05:49:27.982Z,4.17
2018-10-21T05:50:28.032Z,4.19
2018-10-21T05:51:27.988Z,4.19
2018-10-21T05:52:27.954Z,4.20
2018-10-21T05:53:27.950Z,4.24
2018-10-21T05:54:27.939Z,4.14
2018-10-21T05:55:27.930Z,4.23
2018-10-21T05:56:27.928Z,4.19
2018-10-21T05:57:27.911Z,4.28
2018-10-21T05:58:27.946Z,4.23
2018-10-21T05:59:27.898Z,4.28
2018-10-21T06:00:27.903Z,4.38
2018-10-21T06:01:27.880Z,4.37
2018-10-21T06:02:27.869Z,4.41
2018-10-21T06:03:27.859Z,4.45
2018-10-21T06:04:27.856Z,4.55
2018-10-21T06:05:27.852Z,4.59
2018-10-21T06:06:27.836Z,4.60
2018-10-21T06:07:27.828Z,4.68
2018-10-21T06:08:27.820Z,4.63
2018-10-21T06:09:27.809Z,4.66
2018-10-21T06:10:27.804Z,4.68
2018-10-21T06:11:27.795Z,4.73
2018-10-21T06:12:27.783Z,4.75
2018-10-21T06:13:27.782Z,4.74
2018-10-21T06:14:27.772Z,4.73
2018-10-21T06:15:27.761Z,4.86
2018-10-21T06:16:27.755Z,4.87
2018-10-21T06:17:27.742Z,4.84
2018-10-21T06:18:27.745Z,4.84
2018-10-21T06:19:27.723Z,4.93
2018-10-21T06:20:27.724Z,4.99
2018-10-21T06:21:27.710Z,4.90
2018-10-21T06:22:27.702Z,4.97
2018-10-21T06:23:27.705Z,4.99
2018-10-21T06:24:27.687Z,5.00
2018-10-21T06:25:27.684Z,5.08
2018-10-21T06:26:27.666Z,5.17
2018-10-21T06:27:27.679Z,5.17
2018-10-21T06:28:27.655Z,5.18
2018-10-21T06:29:27.645Z,5.15
2018-10-21T06:30:27.642Z,5.17
2018-10-21T06:31:27.640Z,5.14
2018-10-21T06:32:27.620Z,5.05
2018-10-21T06:33:27.630Z,5.00
2018-10-21T06:34:27.607Z,4.97
2018-10-21T06:35:27.598Z,5.00
2018-10-21T06:36:27.588Z,5.00
2018-10-21T06:37:27.581Z,5.04
2018-10-21T06:38:27.566Z,5.11
2018-10-21T06:39:27.564Z,5.15
2018-10-21T06:40:27.559Z,5.14
2018-10-21T06:41:27.550Z,5.20
2018-10-21T06:42:27.537Z,5.28
2018-10-21T06:43:27.533Z,5.26
2018-10-21T06:44:27.521Z,5.35
2018-10-21T06:45:27.706Z,5.32
2018-10-21T06:46:27.506Z,5.36
2018-10-21T06:47:27.496Z,5.36
2018-10-21T06:48:27.558Z,5.46
2018-10-21T06:49:27.478Z,5.53
2018-10-21T06:50:27.480Z,5.54
2018-10-21T06:51:27.468Z,5.53
2018-10-21T06:52:27.455Z,5.54
2018-10-21T06:53:27.444Z,5.59
2018-10-21T06:54:27.438Z,5.57
2018-10-21T06:55:27.431Z,5.72
2018-10-21T06:56:27.541Z,5.71
2018-10-21T06:57:27.564Z,5.65
2018-10-21T06:58:27.407Z,5.71
2018-10-21T06:59:27.399Z,5.82
2018-10-21T07:00:27.387Z,5.90
2018-10-21T07:01:27.389Z,5.91
2018-10-21T07:02:28.362Z,5.91
2018-10-21T07:03:27.363Z,5.89
2018-10-21T07:04:27.411Z,5.97
2018-10-21T07:05:27.349Z,5.87
2018-10-21T07:06:27.346Z,6.05
2018-10-21T07:07:27.329Z,5.94
2018-10-21T07:08:27.330Z,6.01
2018-10-21T07:09:27.317Z,5.98
2018-10-21T07:10:27.312Z,5.98
2018-10-21T07:11:27.304Z,6.07
2018-10-21T07:12:27.298Z,6.04
2018-10-21T07:13:27.285Z,6.16
2018-10-21T07:14:27.276Z,6.27
2018-10-21T07:15:27.296Z,6.30
2018-10-21T07:16:27.349Z,6.28
2018-10-21T07:17:27.258Z,6.33
2018-10-21T07:18:27.250Z,6.36
2018-10-21T07:19:27.235Z,6.42
2018-10-21T07:20:27.230Z,6.46
2018-10-21T07:21:27.220Z,6.52
2018-10-21T07:22:27.217Z,6.59
2018-10-21T07:23:27.207Z,6.46
2018-10-21T07:24:27.208Z,6.66
2018-10-21T07:25:27.193Z,6.77
2018-10-21T07:26:27.199Z,6.72
2018-10-21T07:27:27.222Z,6.77
2018-10-21T07:28:27.237Z,6.87
2018-10-21T07:29:27.160Z,6.96
2018-10-21T07:30:27.152Z,6.89
2018-10-21T07:31:27.145Z,6.95
2018-10-21T07:32:27.141Z,7.07
2018-10-21T07:33:27.130Z,7.03
2018-10-21T07:34:27.127Z,7.06
2018-10-21T07:35:27.112Z,7.18
2018-10-21T07:36:27.170Z,7.24
2018-10-21T07:37:27.112Z,7.29
2018-10-21T07:38:27.090Z,7.29
2018-10-21T07:39:27.089Z,7.35
2018-10-21T07:40:27.077Z,7.36
2018-10-21T07:41:27.070Z,7.42
2018-10-21T07:42:27.062Z,7.47
2018-10-21T07:43:27.055Z,7.54
2018-10-21T07:44:27.049Z,7.63
2018-10-21T07:45:27.045Z,7.72
2018-10-21T07:46:27.035Z,7.77
2018-10-21T07:47:27.027Z,7.87
2018-10-21T07:48:27.022Z,7.93
2018-10-21T07:49:27.016Z,7.94
2018-10-21T07:50:27.029Z,7.94
2018-10-21T07:51:26.992Z,7.88
2018-10-21T07:52:26.990Z,7.88
2018-10-21T07:53:26.984Z,7.91
2018-10-21T07:54:26.981Z,7.98
2018-10-21T07:55:27.008Z,8.03
2018-10-21T07:56:26.963Z,8.15
2018-10-21T07:57:26.950Z,8.20
2018-10-21T07:58:26.950Z,8.12
2018-10-21T07:59:26.941Z,8.19
2018-10-21T08:00:26.936Z,8.16
2018-10-21T08:01:27.871Z,8.24
2018-10-21T08:02:26.925Z,8.27
2018-10-21T08:03:26.912Z,8.19
2018-10-21T08:04:26.918Z,8.33
2018-10-21T08:05:26.897Z,8.41
2018-10-21T08:06:26.895Z,8.44
2018-10-21T08:07:26.886Z,8.53
2018-10-21T08:08:26.911Z,8.55
2018-10-21T08:09:26.877Z,8.52
2018-10-21T08:10:26.864Z,8.66
2018-10-21T08:11:26.859Z,8.67
2018-10-21T08:12:26.850Z,8.79
2018-10-21T08:13:26.850Z,8.84
2018-10-21T08:14:26.845Z,8.82
2018-10-21T08:15:26.832Z,8.78
2018-10-21T08:16:26.825Z,8.94
2018-10-21T08:17:26.816Z,8.92
2018-10-21T08:18:26.813Z,8.99
2018-10-21T08:19:26.804Z,8.97
2018-10-21T08:20:27.305Z,9.02
2018-10-21T08:21:26.788Z,9.04
2018-10-21T08:22:26.783Z,9.14
2018-10-21T08:23:26.776Z,9.11
2018-10-21T08:24:26.771Z,9.03
2018-10-21T08:25:26.763Z,9.08
2018-10-21T08:26:26.760Z,9.02
2018-10-21T08:27:26.813Z,9.23
2018-10-21T08:28:26.746Z,9.46
2018-10-21T08:29:26.737Z,9.47
2018-10-21T08:30:26.733Z,9.56
2018-10-21T08:31:26.726Z,9.50
2018-10-21T08:32:26.720Z,9.72
2018-10-21T08:33:26.714Z,9.66
2018-10-21T08:34:26.706Z,9.69
2018-10-21T08:35:26.697Z,9.74
2018-10-21T08:36:26.696Z,9.79
2018-10-21T08:37:26.685Z,9.76
2018-10-21T08:38:26.682Z,9.73
2018-10-21T08:39:26.680Z,9.64
2018-10-21T08:40:26.679Z,9.66
2018-10-21T08:41:26.660Z,9.54
2018-10-21T08:42:26.658Z,9.59
2018-10-21T08:43:26.646Z,9.47
2018-10-21T08:44:26.647Z,9.56
2018-10-21T08:45:26.637Z,9.64
2018-10-21T08:46:26.764Z,9.64
2018-10-21T08:47:26.627Z,9.68
2018-10-21T08:48:26.622Z,9.68
2018-10-21T08:49:26.643Z,9.65
2018-10-21T08:50:26.619Z,9.69
2018-10-21T08:51:26.599Z,9.77
2018-10-21T08:52:26.597Z,9.77
2018-10-21T08:53:26.590Z,9.83
2018-10-21T08:54:26.583Z,9.82
2018-10-21T08:55:26.584Z,9.84
2018-10-21T08:56:26.600Z,9.91
2018-10-21T08:57:26.566Z,9.95
2018-10-21T08:58:26.563Z,9.91
2018-10-21T08:59:26.559Z,10.10
2018-10-21T09:00:26.545Z,10.16
2018-10-21T09:01:26.541Z,10.09
2018-10-21T09:02:26.537Z,10.12
2018-10-21T09:03:26.531Z,10.22
2018-10-21T09:04:26.526Z,10.25
2018-10-21T09:05:26.520Z,10.23
2018-10-21T09:06:26.512Z,10.26
2018-10-21T09:07:26.518Z,10.26
2018-10-21T09:08:27.387Z,10.38
2018-10-21T09:09:26.496Z,10.44
2018-10-21T09:10:26.511Z,10.51
2018-10-21T09:11:26.482Z,10.57
2018-10-21T09:12:26.495Z,10.51
2018-10-21T09:13:26.467Z,10.69
2018-10-21T09:14:26.468Z,10.74
2018-10-21T09:15:26.493Z,10.79
2018-10-21T09:16:26.472Z,10.93
2018-10-21T09:17:26.449Z,10.86
2018-10-21T09:18:26.455Z,10.94
2018-10-21T09:19:27.313Z,10.96
2018-10-21T09:20:27.314Z,11.00
2018-10-21T09:21:26.430Z,11.08
2018-10-21T09:22:26.417Z,11.08
2018-10-21T09:23:26.416Z,11.14
2018-10-21T09:24:26.414Z,11.14
2018-10-21T09:25:26.402Z,11.12
2018-10-21T09:26:26.399Z,11.25
2018-10-21T09:27:26.392Z,11.23
2018-10-21T09:28:26.385Z,11.33
2018-10-21T09:29:26.388Z,11.37
2018-10-21T09:30:26.376Z,11.36
2018-10-21T09:31:26.897Z,11.48
2018-10-21T09:32:26.360Z,11.44
2018-10-21T09:33:26.369Z,11.45
2018-10-21T09:34:26.355Z,11.50
2018-10-21T09:35:26.350Z,11.65
2018-10-21T09:36:26.339Z,11.73
2018-10-21T09:37:27.321Z,11.81
2018-10-21T09:38:26.342Z,11.88
2018-10-21T09:39:26.330Z,11.97
2018-10-21T09:40:26.323Z,12.03
2018-10-21T09:41:26.315Z,12.04
2018-10-21T09:42:26.305Z,12.12
2018-10-21T09:43:26.303Z,12.07
2018-10-21T09:44:26.307Z,12.13
2018-10-21T09:45:26.296Z,12.12
2018-10-21T09:46:26.291Z,12.17
2018-10-21T09:47:26.281Z,12.15
2018-10-21T09:48:26.279Z,12.21
2018-10-21T09:49:26.270Z,12.18
2018-10-21T09:50:26.825Z,12.24
2018-10-21T09:51:26.261Z,12.28
2018-10-21T09:52:26.259Z,12.36
2018-10-21T09:53:26.259Z,12.43
2018-10-21T09:54:26.823Z,12.36
2018-10-21T09:55:26.244Z,12.42
2018-10-21T09:56:26.242Z,12.54
2018-10-21T09:57:26.237Z,12.62
2018-10-21T09:58:26.261Z,12.58
2018-10-21T09:59:26.238Z,12.62
2018-10-21T10:00:26.218Z,12.72
2018-10-21T10:01:26.214Z,12.82
2018-10-21T10:02:26.214Z,12.87
2018-10-21T10:03:26.204Z,12.91
2018-10-21T10:04:26.260Z,12.98
2018-10-21T10:05:26.296Z,13.09
2018-10-21T10:06:26.187Z,13.11
2018-10-21T10:07:26.186Z,13.12
2018-10-21T10:08:26.176Z,13.05
2018-10-21T10:09:26.175Z,13.11
2018-10-21T10:10:26.176Z,13.11
2018-10-21T10:11:26.165Z,13.23
2018-10-21T10:12:26.162Z,13.22
2018-10-21T10:13:26.156Z,13.35
2018-10-21T10:14:26.153Z,13.31
2018-10-21T10:15:26.149Z,13.37
2018-10-21T10:16:26.156Z,13.33
2018-10-21T10:17:26.138Z,13.44
2018-10-21T10:18:26.137Z,13.52
2018-10-21T10:19:26.129Z,13.53
2018-10-21T10:20:26.125Z,13.52
2018-10-21T10:21:26.123Z,13.57
2018-10-21T10:22:26.117Z,13.54
2018-10-21T10:23:26.221Z,13.57
2018-10-21T10:24:26.107Z,13.65
2018-10-21T10:25:26.104Z,13.67
2018-10-21T10:26:26.104Z,13.68
2018-10-21T10:27:26.093Z,13.60
2018-10-21T10:28:26.089Z,13.71
2018-10-21T10:29:26.083Z,13.65
2018-10-21T10:30:26.116Z,13.77
2018-10-21T10:31:26.076Z,13.65
2018-10-21T10:32:26.072Z,13.81
2018-10-21T10:33:26.066Z,13.83
2018-10-21T10:34:26.064Z,13.95
2018-10-21T10:35:26.064Z,13.96
2018-10-21T10:36:26.054Z,13.96
2018-10-21T10:37:26.048Z,13.99
2018-10-21T10:38:26.044Z,13.97
2018-10-21T10:39:26.048Z,14.00
2018-10-21T10:40:26.041Z,13.99
2018-10-21T10:41:26.035Z,13.93
2018-10-21T10:42:26.027Z,13.95
2018-10-21T10:43:26.023Z,13.92
2018-10-21T10:44:26.022Z,14.00
2018-10-21T10:45:26.016Z,14.03
2018-10-21T10:46:26.013Z,14.03
2018-10-21T10:47:26.006Z,14.07
2018-10-21T10:48:26.005Z,14.14
2018-10-21T10:49:26.004Z,14.23
2018-10-21T10:50:25.997Z,14.26
2018-10-21T10:51:25.993Z,14.20
2018-10-21T10:52:25.988Z,14.32
2018-10-21T10:53:25.985Z,14.36
2018-10-21T10:54:25.982Z,14.45
2018-10-21T10:55:25.978Z,14.37
2018-10-21T10:56:25.975Z,14.41
2018-10-21T10:57:25.968Z,14.43
2018-10-21T10:58:25.966Z,14.54
2018-10-21T10:59:25.982Z,14.51
2018-10-21T11:00:25.962Z,14.51
2018-10-21T11:01:25.959Z,14.45
2018-10-21T11:02:25.950Z,14.45
2018-10-21T11:03:25.948Z,14.45
2018-10-21T11:04:25.950Z,14.28
2018-10-21T11:05:25.943Z,14.23
2018-10-21T11:06:26.047Z,14.10
2018-10-21T11:07:25.933Z,14.03
2018-10-21T11:08:25.928Z,14.07
2018-10-21T11:09:25.927Z,14.14
2018-10-21T11:10:25.921Z,14.25
2018-10-21T11:11:25.923Z,14.26
2018-10-21T11:12:25.920Z,14.32
2018-10-21T11:13:25.911Z,14.36
2018-10-21T11:14:25.907Z,14.40
2018-10-21T11:15:25.906Z,14.63
2018-10-21T11:16:25.904Z,14.63
2018-10-21T11:17:25.896Z,14.69
2018-10-21T11:18:25.890Z,14.77
2018-10-21T11:19:25.888Z,14.78
2018-10-21T11:20:25.903Z,14.73
2018-10-21T11:21:25.881Z,14.84
2018-10-21T11:22:25.974Z,14.91
2018-10-21T11:23:25.875Z,14.89
2018-10-21T11:24:25.871Z,14.85
2018-10-21T11:25:25.862Z,14.86
2018-10-21T11:26:25.858Z,15.04
2018-10-21T11:27:25.860Z,15.07
2018-10-21T11:28:25.859Z,15.07
2018-10-21T11:29:25.860Z,15.09
2018-10-21T11:30:25.849Z,15.11
2018-10-21T11:31:25.843Z,15.10
2018-10-21T11:32:25.843Z,15.19
2018-10-21T11:33:25.839Z,15.22
2018-10-21T11:34:25.835Z,15.27
2018-10-21T11:35:25.833Z,15.22
2018-10-21T11:36:25.831Z,15.19
2018-10-21T11:37:25.947Z,15.25
2018-10-21T11:38:25.860Z,15.07
2018-10-21T11:39:25.820Z,15.17
2018-10-21T11:40:25.817Z,15.04
2018-10-21T11:41:25.813Z,15.04
2018-10-21T11:42:25.808Z,14.91
2018-10-21T11:43:25.808Z,14.81
2018-10-21T11:44:25.807Z,14.68
2018-10-21T11:45:25.858Z,14.60
2018-10-21T11:46:25.855Z,14.69
2018-10-21T11:47:25.815Z,14.53
2018-10-21T11:48:25.798Z,14.53
2018-10-21T11:49:25.790Z,14.50
2018-10-21T11:50:25.786Z,14.54
2018-10-21T11:51:25.781Z,14.50
2018-10-21T11:52:25.788Z,14.43
2018-10-21T11:53:25.774Z,14.54
2018-10-21T11:54:25.770Z,14.66
2018-10-21T11:55:25.769Z,14.68
2018-10-21T11:56:25.765Z,14.68
2018-10-21T11:57:25.762Z,14.79
2018-10-21T11:58:25.756Z,14.81
2018-10-21T11:59:25.761Z,14.84
2018-10-21T12:00:25.754Z,14.96
2018-10-21T12:01:25.747Z,15.02
2018-10-21T12:02:25.745Z,15.04
2018-10-21T12:03:25.741Z,15.10
2018-10-21T12:04:25.739Z,15.22
2018-10-21T12:05:25.737Z,15.24
2018-10-21T12:06:25.731Z,15.24
2018-10-21T12:07:25.729Z,15.31
2018-10-21T12:08:25.726Z,15.37
2018-10-21T12:09:25.723Z,15.31
2018-10-21T12:10:25.720Z,15.28
2018-10-21T12:11:25.714Z,15.35
2018-10-21T12:12:25.713Z,15.21
2018-10-21T12:13:25.709Z,15.21
2018-10-21T12:14:25.706Z,15.24
2018-10-21T12:15:25.706Z,15.36
2018-10-21T12:16:25.702Z,15.39
2018-10-21T12:17:25.699Z,15.36
2018-10-21T12:18:25.695Z,15.39
2018-10-21T12:19:25.691Z,15.37
2018-10-21T12:20:25.688Z,15.44
2018-10-21T12:21:25.685Z,15.42
2018-10-21T12:22:25.733Z,15.39
2018-10-21T12:23:25.767Z,15.33
2018-10-21T12:24:25.697Z,15.39
2018-10-21T12:25:25.729Z,15.22
2018-10-21T12:26:25.671Z,15.18
2018-10-21T12:27:25.668Z,15.22
2018-10-21T12:28:25.663Z,15.27
2018-10-21T12:29:25.661Z,15.28
2018-10-21T12:30:25.659Z,15.28
2018-10-21T12:31:25.653Z,15.37
2018-10-21T12:32:25.657Z,15.28
2018-10-21T12:33:25.654Z,15.19
2018-10-21T12:34:25.652Z,15.15
2018-10-21T12:35:25.645Z,15.15
2018-10-21T12:36:25.642Z,15.11
2018-10-21T12:37:25.642Z,15.11
2018-10-21T12:38:25.635Z,15.07
2018-10-21T12:39:25.635Z,15.10
2018-10-21T12:40:25.631Z,15.09
2018-10-21T12:41:25.627Z,15.07
2018-10-21T12:42:25.619Z,14.99
2018-10-21T12:43:25.632Z,15.04
2018-10-21T12:44:25.618Z,14.97
2018-10-21T12:45:25.631Z,15.07
2018-10-21T12:46:25.612Z,15.09
2018-10-21T12:47:25.609Z,15.02
2018-10-21T12:48:25.609Z,15.10
2018-10-21T12:49:25.601Z,15.10
2018-10-21T12:50:25.601Z,15.24
2018-10-21T12:51:25.597Z,15.29
2018-10-21T12:52:25.594Z,15.44
2018-10-21T12:53:25.596Z,15.35
2018-10-21T12:54:25.631Z,15.37
2018-10-21T12:55:25.584Z,15.40
2018-10-21T12:56:25.581Z,15.47
2018-10-21T12:57:25.579Z,15.42
2018-10-21T12:58:25.572Z,15.39
2018-10-21T12:59:25.575Z,15.33
2018-10-21T13:00:25.569Z,15.36
2018-10-21T13:01:25.571Z,15.35
2018-10-21T13:02:25.644Z,15.37
2018-10-21T13:03:25.557Z,15.31
2018-10-21T13:04:25.557Z,15.42
2018-10-21T13:05:25.557Z,15.35
2018-10-21T13:06:25.551Z,15.42
2018-10-21T13:07:25.548Z,15.36
2018-10-21T13:08:25.547Z,15.44
2018-10-21T13:09:25.542Z,15.39
2018-10-21T13:10:25.545Z,15.40